sensor_id;sensor_type;location;lat;lon;timestamp;P1;durP1;ratioP1;P2;durP2;ratioP2
10430;SDS011;5262;59.958;17.726;2024-01-06T00:02:16;2.63;;;1.70;;
10430;SDS011;5262;59.958;17.726;2024-01-06T00:04:42;2.37;;;1.50;;
10430;SDS011;5262;59.958;17.726;2024-01-06T00:07:07;2.63;;;1.50;;
10430;SDS011;5262;59.958;17.726;2024-01-06T00:09:33;1.50;;;1.17;;
10430;SDS011;5262;59.958;17.726;2024-01-06T00:11:58;1.20;;;1.10;;
10430;SDS011;5262;59.958;17.726;2024-01-06T00:14:24;2.23;;;1.57;;
10430;SDS011;5262;59.958;17.726;2024-01-06T00:16:50;1.80;;;1.40;;
10430;SDS011;5262;59.958;17.726;2024-01-06T00:19:15;1.97;;;1.00;;
10430;SDS011;5262;59.958;17.726;2024-01-06T00:21:42;1.50;;;1.03;;
10430;SDS011;5262;59.958;17.726;2024-01-06T00:24:08;2.03;;;1.30;;
10430;SDS011;5262;59.958;17.726;2024-01-06T00:26:34;1.77;;;1.10;;
10430;SDS011;5262;59.958;17.726;2024-01-06T00:28:59;1.30;;;1.07;;
10430;SDS011;5262;59.958;17.726;2024-01-06T00:31:25;2.33;;;1.20;;
10430;SDS011;5262;59.958;17.726;2024-01-06T00:33:51;1.73;;;1.10;;
10430;SDS011;5262;59.958;17.726;2024-01-06T00:36:16;1.60;;;1.20;;
10430;SDS011;5262;59.958;17.726;2024-01-06T00:38:42;1.83;;;1.27;;
10430;SDS011;5262;59.958;17.726;2024-01-06T00:41:08;1.13;;;0.90;;
10430;SDS011;5262;59.958;17.726;2024-01-06T00:43:33;2.73;;;1.43;;
10430;SDS011;5262;59.958;17.726;2024-01-06T00:45:59;1.30;;;1.07;;
10430;SDS011;5262;59.958;17.726;2024-01-06T00:48:25;1.73;;;1.30;;
10430;SDS011;5262;59.958;17.726;2024-01-06T00:50:50;1.43;;;1.07;;
10430;SDS011;5262;59.958;17.726;2024-01-06T00:53:16;1.40;;;1.03;;
10430;SDS011;5262;59.958;17.726;2024-01-06T00:55:41;1.20;;;1.10;;
10430;SDS011;5262;59.958;17.726;2024-01-06T00:58:07;1.00;;;0.90;;
10430;SDS011;5262;59.958;17.726;2024-01-06T01:00:33;1.43;;;1.03;;
10430;SDS011;5262;59.958;17.726;2024-01-06T01:02:59;2.93;;;1.47;;
10430;SDS011;5262;59.958;17.726;2024-01-06T01:05:25;3.30;;;1.90;;
10430;SDS011;5262;59.958;17.726;2024-01-06T01:07:50;1.87;;;1.40;;
10430;SDS011;5262;59.958;17.726;2024-01-06T01:10:16;2.77;;;1.53;;
10430;SDS011;5262;59.958;17.726;2024-01-06T01:12:42;2.53;;;1.20;;
10430;SDS011;5262;59.958;17.726;2024-01-06T01:15:07;1.70;;;1.10;;
10430;SDS011;5262;59.958;17.726;2024-01-06T01:17:33;2.20;;;1.50;;
10430;SDS011;5262;59.958;17.726;2024-01-06T01:19:59;1.97;;;1.20;;
10430;SDS011;5262;59.958;17.726;2024-01-06T01:22:24;2.00;;;1.47;;
10430;SDS011;5262;59.958;17.726;2024-01-06T01:24:50;2.00;;;1.37;;
10430;SDS011;5262;59.958;17.726;2024-01-06T01:27:16;2.70;;;1.30;;
10430;SDS011;5262;59.958;17.726;2024-01-06T01:29:41;1.97;;;1.30;;
10430;SDS011;5262;59.958;17.726;2024-01-06T01:32:07;1.83;;;1.03;;
10430;SDS011;5262;59.958;17.726;2024-01-06T01:34:33;1.57;;;1.13;;
10430;SDS011;5262;59.958;17.726;2024-01-06T01:36:59;2.73;;;1.50;;
10430;SDS011;5262;59.958;17.726;2024-01-06T01:39:25;2.10;;;1.40;;
10430;SDS011;5262;59.958;17.726;2024-01-06T01:41:50;1.20;;;1.00;;
10430;SDS011;5262;59.958;17.726;2024-01-06T01:44:16;1.57;;;1.10;;
10430;SDS011;5262;59.958;17.726;2024-01-06T01:46:41;2.53;;;1.40;;
10430;SDS011;5262;59.958;17.726;2024-01-06T01:49:07;1.67;;;1.30;;
10430;SDS011;5262;59.958;17.726;2024-01-06T01:51:34;2.97;;;1.27;;
10430;SDS011;5262;59.958;17.726;2024-01-06T01:54:04;1.53;;;1.20;;
10430;SDS011;5262;59.958;17.726;2024-01-06T01:56:31;2.00;;;1.43;;
10430;SDS011;5262;59.958;17.726;2024-01-06T01:59:11;1.03;;;0.90;;
10430;SDS011;5262;59.958;17.726;2024-01-06T02:01:41;1.63;;;1.10;;
10430;SDS011;5262;59.958;17.726;2024-01-06T02:04:07;0.83;;;0.80;;
10430;SDS011;5262;59.958;17.726;2024-01-06T02:06:33;1.53;;;1.40;;
10430;SDS011;5262;59.958;17.726;2024-01-06T02:08:59;1.80;;;1.40;;
10430;SDS011;5262;59.958;17.726;2024-01-06T02:11:24;1.60;;;1.27;;
10430;SDS011;5262;59.958;17.726;2024-01-06T02:13:50;2.17;;;1.10;;
10430;SDS011;5262;59.958;17.726;2024-01-06T02:16:15;0.87;;;0.83;;
10430;SDS011;5262;59.958;17.726;2024-01-06T02:18:41;1.37;;;1.10;;
10430;SDS011;5262;59.958;17.726;2024-01-06T02:21:07;1.40;;;1.10;;
10430;SDS011;5262;59.958;17.726;2024-01-06T02:23:34;2.00;;;0.90;;
10430;SDS011;5262;59.958;17.726;2024-01-06T02:26:01;1.70;;;1.20;;
10430;SDS011;5262;59.958;17.726;2024-01-06T02:28:27;1.13;;;1.00;;
10430;SDS011;5262;59.958;17.726;2024-01-06T02:30:52;2.73;;;1.30;;
10430;SDS011;5262;59.958;17.726;2024-01-06T02:33:18;1.53;;;1.00;;
10430;SDS011;5262;59.958;17.726;2024-01-06T02:35:49;1.73;;;1.37;;
10430;SDS011;5262;59.958;17.726;2024-01-06T02:38:15;1.20;;;0.83;;
10430;SDS011;5262;59.958;17.726;2024-01-06T02:40:40;2.40;;;1.27;;
10430;SDS011;5262;59.958;17.726;2024-01-06T02:43:07;1.90;;;1.30;;
10430;SDS011;5262;59.958;17.726;2024-01-06T02:45:33;1.47;;;1.10;;
10430;SDS011;5262;59.958;17.726;2024-01-06T02:47:59;1.47;;;1.03;;
10430;SDS011;5262;59.958;17.726;2024-01-06T02:50:24;1.97;;;1.23;;
10430;SDS011;5262;59.958;17.726;2024-01-06T02:52:50;1.10;;;0.90;;
10430;SDS011;5262;59.958;17.726;2024-01-06T02:55:16;2.37;;;1.40;;
10430;SDS011;5262;59.958;17.726;2024-01-06T02:57:41;1.63;;;1.17;;
10430;SDS011;5262;59.958;17.726;2024-01-06T03:00:07;1.93;;;1.13;;
10430;SDS011;5262;59.958;17.726;2024-01-06T03:02:33;2.07;;;1.37;;
10430;SDS011;5262;59.958;17.726;2024-01-06T03:05:01;1.27;;;0.97;;
10430;SDS011;5262;59.958;17.726;2024-01-06T03:07:27;1.60;;;1.10;;
10430;SDS011;5262;59.958;17.726;2024-01-06T03:09:52;1.10;;;0.97;;
10430;SDS011;5262;59.958;17.726;2024-01-06T03:12:18;2.70;;;1.30;;
10430;SDS011;5262;59.958;17.726;2024-01-06T03:14:43;1.80;;;1.30;;
10430;SDS011;5262;59.958;17.726;2024-01-06T03:17:09;1.70;;;1.00;;
10430;SDS011;5262;59.958;17.726;2024-01-06T03:19:38;1.30;;;1.00;;
10430;SDS011;5262;59.958;17.726;2024-01-06T03:22:04;1.67;;;1.30;;
10430;SDS011;5262;59.958;17.726;2024-01-06T03:24:30;1.37;;;1.17;;
10430;SDS011;5262;59.958;17.726;2024-01-06T03:26:56;2.03;;;1.10;;
10430;SDS011;5262;59.958;17.726;2024-01-06T03:29:22;2.33;;;1.60;;
10430;SDS011;5262;59.958;17.726;2024-01-06T03:31:47;1.17;;;1.03;;
10430;SDS011;5262;59.958;17.726;2024-01-06T03:34:13;1.70;;;1.10;;
10430;SDS011;5262;59.958;17.726;2024-01-06T03:36:39;1.93;;;1.13;;
10430;SDS011;5262;59.958;17.726;2024-01-06T03:39:05;1.43;;;1.27;;
10430;SDS011;5262;59.958;17.726;2024-01-06T03:41:31;1.53;;;1.00;;
10430;SDS011;5262;59.958;17.726;2024-01-06T03:43:57;2.43;;;1.10;;
10430;SDS011;5262;59.958;17.726;2024-01-06T03:46:23;1.40;;;1.10;;
10430;SDS011;5262;59.958;17.726;2024-01-06T03:48:48;1.57;;;1.00;;
10430;SDS011;5262;59.958;17.726;2024-01-06T03:51:14;1.73;;;1.17;;
10430;SDS011;5262;59.958;17.726;2024-01-06T03:53:40;1.33;;;0.80;;
10430;SDS011;5262;59.958;17.726;2024-01-06T03:56:06;1.30;;;1.07;;
10430;SDS011;5262;59.958;17.726;2024-01-06T03:58:32;2.17;;;1.40;;
10430;SDS011;5262;59.958;17.726;2024-01-06T04:00:58;1.90;;;1.27;;
10430;SDS011;5262;59.958;17.726;2024-01-06T04:03:24;2.17;;;1.10;;
10430;SDS011;5262;59.958;17.726;2024-01-06T04:05:49;2.37;;;1.20;;
10430;SDS011;5262;59.958;17.726;2024-01-06T04:08:15;1.57;;;1.20;;
10430;SDS011;5262;59.958;17.726;2024-01-06T04:10:42;2.23;;;1.30;;
10430;SDS011;5262;59.958;17.726;2024-01-06T04:13:10;2.27;;;1.10;;
10430;SDS011;5262;59.958;17.726;2024-01-06T04:15:36;2.13;;;0.93;;
10430;SDS011;5262;59.958;17.726;2024-01-06T04:18:02;1.17;;;0.90;;
10430;SDS011;5262;59.958;17.726;2024-01-06T04:20:29;2.27;;;1.23;;
10430;SDS011;5262;59.958;17.726;2024-01-06T04:22:55;1.00;;;0.90;;
10430;SDS011;5262;59.958;17.726;2024-01-06T04:25:20;1.60;;;1.20;;
10430;SDS011;5262;59.958;17.726;2024-01-06T04:27:46;2.83;;;1.23;;
10430;SDS011;5262;59.958;17.726;2024-01-06T04:30:13;2.40;;;1.00;;
10430;SDS011;5262;59.958;17.726;2024-01-06T04:32:39;1.47;;;1.23;;
10430;SDS011;5262;59.958;17.726;2024-01-06T04:35:05;2.17;;;1.40;;
10430;SDS011;5262;59.958;17.726;2024-01-06T04:37:31;1.20;;;1.00;;
10430;SDS011;5262;59.958;17.726;2024-01-06T04:39:57;1.10;;;1.00;;
10430;SDS011;5262;59.958;17.726;2024-01-06T04:42:23;2.67;;;1.30;;
10430;SDS011;5262;59.958;17.726;2024-01-06T04:44:49;1.00;;;0.90;;
10430;SDS011;5262;59.958;17.726;2024-01-06T04:47:15;1.40;;;1.00;;
10430;SDS011;5262;59.958;17.726;2024-01-06T04:49:41;2.13;;;1.13;;
10430;SDS011;5262;59.958;17.726;2024-01-06T04:52:06;1.10;;;1.00;;
10430;SDS011;5262;59.958;17.726;2024-01-06T04:54:32;1.63;;;1.07;;
10430;SDS011;5262;59.958;17.726;2024-01-06T04:56:58;1.70;;;1.10;;
10430;SDS011;5262;59.958;17.726;2024-01-06T04:59:24;1.30;;;1.00;;
10430;SDS011;5262;59.958;17.726;2024-01-06T05:01:53;2.47;;;1.40;;
10430;SDS011;5262;59.958;17.726;2024-01-06T05:04:19;3.43;;;1.20;;
10430;SDS011;5262;59.958;17.726;2024-01-06T05:06:44;1.63;;;1.10;;
10430;SDS011;5262;59.958;17.726;2024-01-06T05:09:10;2.83;;;1.30;;
10430;SDS011;5262;59.958;17.726;2024-01-06T05:11:36;2.97;;;1.53;;
10430;SDS011;5262;59.958;17.726;2024-01-06T05:14:02;11.70;;;4.37;;
10430;SDS011;5262;59.958;17.726;2024-01-06T05:16:27;6.67;;;2.87;;
10430;SDS011;5262;59.958;17.726;2024-01-06T05:18:53;6.00;;;2.70;;
10430;SDS011;5262;59.958;17.726;2024-01-06T05:21:19;4.27;;;1.70;;
10430;SDS011;5262;59.958;17.726;2024-01-06T05:23:45;4.53;;;2.03;;
10430;SDS011;5262;59.958;17.726;2024-01-06T05:26:10;12.20;;;5.30;;
10430;SDS011;5262;59.958;17.726;2024-01-06T05:28:38;6.70;;;3.50;;
10430;SDS011;5262;59.958;17.726;2024-01-06T05:31:03;2.33;;;1.33;;
10430;SDS011;5262;59.958;17.726;2024-01-06T05:33:29;2.63;;;2.07;;
10430;SDS011;5262;59.958;17.726;2024-01-06T05:35:54;3.37;;;1.87;;
10430;SDS011;5262;59.958;17.726;2024-01-06T05:38:20;4.37;;;2.47;;
10430;SDS011;5262;59.958;17.726;2024-01-06T05:40:46;5.27;;;3.07;;
10430;SDS011;5262;59.958;17.726;2024-01-06T05:43:11;9.47;;;3.23;;
10430;SDS011;5262;59.958;17.726;2024-01-06T05:45:37;43.93;;;14.47;;
10430;SDS011;5262;59.958;17.726;2024-01-06T05:48:03;11.97;;;6.10;;
10430;SDS011;5262;59.958;17.726;2024-01-06T05:50:33;3.80;;;1.60;;
10430;SDS011;5262;59.958;17.726;2024-01-06T05:52:59;2.93;;;1.27;;
10430;SDS011;5262;59.958;17.726;2024-01-06T05:55:24;1.67;;;1.33;;
10430;SDS011;5262;59.958;17.726;2024-01-06T05:57:50;2.03;;;1.40;;
10430;SDS011;5262;59.958;17.726;2024-01-06T06:00:16;2.80;;;1.90;;
10430;SDS011;5262;59.958;17.726;2024-01-06T06:02:41;3.50;;;2.03;;
10430;SDS011;5262;59.958;17.726;2024-01-06T06:05:07;5.10;;;2.20;;
10430;SDS011;5262;59.958;17.726;2024-01-06T06:07:33;5.20;;;1.97;;
10430;SDS011;5262;59.958;17.726;2024-01-06T06:10:04;4.03;;;1.73;;
10430;SDS011;5262;59.958;17.726;2024-01-06T06:12:36;4.87;;;2.33;;
10430;SDS011;5262;59.958;17.726;2024-01-06T06:15:03;5.80;;;3.30;;
10430;SDS011;5262;59.958;17.726;2024-01-06T06:17:30;10.27;;;2.93;;
10430;SDS011;5262;59.958;17.726;2024-01-06T06:19:56;3.43;;;1.90;;
10430;SDS011;5262;59.958;17.726;2024-01-06T06:22:22;4.07;;;1.67;;
10430;SDS011;5262;59.958;17.726;2024-01-06T06:24:49;3.80;;;1.77;;
10430;SDS011;5262;59.958;17.726;2024-01-06T06:27:14;4.87;;;1.90;;
10430;SDS011;5262;59.958;17.726;2024-01-06T06:29:40;2.17;;;1.43;;
10430;SDS011;5262;59.958;17.726;2024-01-06T06:32:05;5.03;;;1.53;;
10430;SDS011;5262;59.958;17.726;2024-01-06T06:34:31;8.20;;;1.90;;
10430;SDS011;5262;59.958;17.726;2024-01-06T06:36:57;3.03;;;1.63;;
10430;SDS011;5262;59.958;17.726;2024-01-06T06:39:23;3.73;;;2.07;;
10430;SDS011;5262;59.958;17.726;2024-01-06T06:41:49;3.43;;;1.93;;
10430;SDS011;5262;59.958;17.726;2024-01-06T06:44:15;2.67;;;1.47;;
10430;SDS011;5262;59.958;17.726;2024-01-06T06:46:40;5.47;;;2.93;;
10430;SDS011;5262;59.958;17.726;2024-01-06T06:49:06;8.30;;;2.50;;
10430;SDS011;5262;59.958;17.726;2024-01-06T06:51:32;5.87;;;2.60;;
10430;SDS011;5262;59.958;17.726;2024-01-06T06:53:57;36.83;;;9.57;;
10430;SDS011;5262;59.958;17.726;2024-01-06T06:56:23;38.63;;;13.67;;
10430;SDS011;5262;59.958;17.726;2024-01-06T06:58:49;49.80;;;17.43;;
10430;SDS011;5262;59.958;17.726;2024-01-06T07:01:15;20.27;;;8.73;;
10430;SDS011;5262;59.958;17.726;2024-01-06T07:03:41;10.73;;;5.20;;
10430;SDS011;5262;59.958;17.726;2024-01-06T07:06:06;3.37;;;2.13;;
10430;SDS011;5262;59.958;17.726;2024-01-06T07:08:32;3.03;;;1.97;;
10430;SDS011;5262;59.958;17.726;2024-01-06T07:10:57;3.63;;;1.50;;
10430;SDS011;5262;59.958;17.726;2024-01-06T07:13:23;2.43;;;1.53;;
10430;SDS011;5262;59.958;17.726;2024-01-06T07:15:49;3.90;;;2.20;;
10430;SDS011;5262;59.958;17.726;2024-01-06T07:18:15;3.60;;;1.47;;
10430;SDS011;5262;59.958;17.726;2024-01-06T07:20:40;3.50;;;1.57;;
10430;SDS011;5262;59.958;17.726;2024-01-06T07:23:06;2.83;;;1.80;;
10430;SDS011;5262;59.958;17.726;2024-01-06T07:25:32;2.43;;;1.53;;
10430;SDS011;5262;59.958;17.726;2024-01-06T07:27:57;5.70;;;2.47;;
10430;SDS011;5262;59.958;17.726;2024-01-06T07:30:23;8.40;;;2.53;;
10430;SDS011;5262;59.958;17.726;2024-01-06T07:32:49;4.60;;;2.33;;
10430;SDS011;5262;59.958;17.726;2024-01-06T07:35:15;4.87;;;2.37;;
10430;SDS011;5262;59.958;17.726;2024-01-06T07:37:41;3.17;;;2.17;;
10430;SDS011;5262;59.958;17.726;2024-01-06T07:40:07;2.90;;;2.13;;
10430;SDS011;5262;59.958;17.726;2024-01-06T07:42:33;3.30;;;1.60;;
10430;SDS011;5262;59.958;17.726;2024-01-06T07:44:59;5.10;;;1.87;;
10430;SDS011;5262;59.958;17.726;2024-01-06T07:47:24;7.57;;;2.67;;
10430;SDS011;5262;59.958;17.726;2024-01-06T07:49:50;7.43;;;2.20;;
10430;SDS011;5262;59.958;17.726;2024-01-06T07:52:17;4.63;;;2.20;;
10430;SDS011;5262;59.958;17.726;2024-01-06T07:54:43;2.70;;;1.70;;
10430;SDS011;5262;59.958;17.726;2024-01-06T07:57:09;6.43;;;2.57;;
10430;SDS011;5262;59.958;17.726;2024-01-06T07:59:36;4.07;;;2.13;;
10430;SDS011;5262;59.958;17.726;2024-01-06T08:02:01;6.40;;;2.30;;
10430;SDS011;5262;59.958;17.726;2024-01-06T08:04:27;3.07;;;1.73;;
10430;SDS011;5262;59.958;17.726;2024-01-06T08:06:53;2.53;;;1.30;;
10430;SDS011;5262;59.958;17.726;2024-01-06T08:09:19;1.83;;;1.07;;
10430;SDS011;5262;59.958;17.726;2024-01-06T08:11:45;2.57;;;1.67;;
10430;SDS011;5262;59.958;17.726;2024-01-06T08:14:12;3.30;;;1.63;;
10430;SDS011;5262;59.958;17.726;2024-01-06T08:16:38;3.63;;;2.20;;
10430;SDS011;5262;59.958;17.726;2024-01-06T08:19:03;8.90;;;3.63;;
10430;SDS011;5262;59.958;17.726;2024-01-06T08:21:29;7.43;;;3.00;;
10430;SDS011;5262;59.958;17.726;2024-01-06T08:23:54;5.63;;;2.97;;
10430;SDS011;5262;59.958;17.726;2024-01-06T08:26:21;3.53;;;2.07;;
10430;SDS011;5262;59.958;17.726;2024-01-06T08:28:46;2.27;;;1.40;;
10430;SDS011;5262;59.958;17.726;2024-01-06T08:31:12;2.30;;;1.73;;
10430;SDS011;5262;59.958;17.726;2024-01-06T08:33:37;2.13;;;1.60;;
10430;SDS011;5262;59.958;17.726;2024-01-06T08:36:03;3.63;;;1.37;;
10430;SDS011;5262;59.958;17.726;2024-01-06T08:38:30;1.33;;;1.07;;
10430;SDS011;5262;59.958;17.726;2024-01-06T08:40:56;2.63;;;1.80;;
10430;SDS011;5262;59.958;17.726;2024-01-06T08:43:21;1.73;;;1.20;;
10430;SDS011;5262;59.958;17.726;2024-01-06T08:45:47;1.27;;;0.90;;
10430;SDS011;5262;59.958;17.726;2024-01-06T08:48:13;1.63;;;1.27;;
10430;SDS011;5262;59.958;17.726;2024-01-06T08:50:40;2.33;;;1.03;;
10430;SDS011;5262;59.958;17.726;2024-01-06T08:53:05;1.20;;;1.00;;
10430;SDS011;5262;59.958;17.726;2024-01-06T08:55:31;3.97;;;1.20;;
10430;SDS011;5262;59.958;17.726;2024-01-06T08:57:56;3.10;;;1.63;;
10430;SDS011;5262;59.958;17.726;2024-01-06T09:00:22;1.63;;;1.20;;
10430;SDS011;5262;59.958;17.726;2024-01-06T09:02:48;3.83;;;1.63;;
10430;SDS011;5262;59.958;17.726;2024-01-06T09:05:14;5.93;;;2.70;;
10430;SDS011;5262;59.958;17.726;2024-01-06T09:07:39;7.07;;;3.20;;
10430;SDS011;5262;59.958;17.726;2024-01-06T09:10:05;5.67;;;2.83;;
10430;SDS011;5262;59.958;17.726;2024-01-06T09:12:32;3.00;;;1.97;;
10430;SDS011;5262;59.958;17.726;2024-01-06T09:14:57;4.90;;;2.10;;
10430;SDS011;5262;59.958;17.726;2024-01-06T09:17:23;6.30;;;3.63;;
10430;SDS011;5262;59.958;17.726;2024-01-06T09:19:48;6.40;;;3.50;;
10430;SDS011;5262;59.958;17.726;2024-01-06T09:22:14;9.33;;;4.37;;
10430;SDS011;5262;59.958;17.726;2024-01-06T09:24:40;6.60;;;3.30;;
10430;SDS011;5262;59.958;17.726;2024-01-06T09:27:05;15.20;;;8.80;;
10430;SDS011;5262;59.958;17.726;2024-01-06T09:29:31;9.37;;;7.00;;
10430;SDS011;5262;59.958;17.726;2024-01-06T09:31:57;13.97;;;8.07;;
10430;SDS011;5262;59.958;17.726;2024-01-06T09:34:22;9.10;;;4.87;;
10430;SDS011;5262;59.958;17.726;2024-01-06T09:36:48;4.17;;;2.40;;
10430;SDS011;5262;59.958;17.726;2024-01-06T09:39:13;6.50;;;3.60;;
10430;SDS011;5262;59.958;17.726;2024-01-06T09:41:39;3.13;;;1.80;;
10430;SDS011;5262;59.958;17.726;2024-01-06T09:44:04;2.30;;;1.90;;
10430;SDS011;5262;59.958;17.726;2024-01-06T09:46:31;8.93;;;4.20;;
10430;SDS011;5262;59.958;17.726;2024-01-06T09:48:57;8.43;;;4.20;;
10430;SDS011;5262;59.958;17.726;2024-01-06T09:51:24;2.70;;;2.07;;
10430;SDS011;5262;59.958;17.726;2024-01-06T09:54:01;4.73;;;2.97;;
10430;SDS011;5262;59.958;17.726;2024-01-06T09:56:32;3.87;;;1.73;;
10430;SDS011;5262;59.958;17.726;2024-01-06T09:58:59;2.47;;;1.60;;
10430;SDS011;5262;59.958;17.726;2024-01-06T10:01:26;2.20;;;1.50;;
10430;SDS011;5262;59.958;17.726;2024-01-06T10:03:52;3.63;;;3.13;;
10430;SDS011;5262;59.958;17.726;2024-01-06T10:06:17;2.13;;;1.53;;
10430;SDS011;5262;59.958;17.726;2024-01-06T10:08:50;1.87;;;1.50;;
10430;SDS011;5262;59.958;17.726;2024-01-06T10:11:18;3.17;;;2.30;;
10430;SDS011;5262;59.958;17.726;2024-01-06T10:13:52;12.93;;;6.27;;
10430;SDS011;5262;59.958;17.726;2024-01-06T10:16:19;6.70;;;3.90;;
10430;SDS011;5262;59.958;17.726;2024-01-06T10:18:45;4.07;;;2.03;;
10430;SDS011;5262;59.958;17.726;2024-01-06T10:21:11;4.43;;;2.67;;
10430;SDS011;5262;59.958;17.726;2024-01-06T10:23:38;4.03;;;2.23;;
10430;SDS011;5262;59.958;17.726;2024-01-06T10:26:04;3.73;;;2.77;;
10430;SDS011;5262;59.958;17.726;2024-01-06T10:28:30;14.67;;;6.43;;
10430;SDS011;5262;59.958;17.726;2024-01-06T10:30:56;28.00;;;9.87;;
10430;SDS011;5262;59.958;17.726;2024-01-06T10:33:23;12.50;;;5.33;;
10430;SDS011;5262;59.958;17.726;2024-01-06T10:35:50;13.57;;;6.13;;
10430;SDS011;5262;59.958;17.726;2024-01-06T10:38:17;6.63;;;4.20;;
10430;SDS011;5262;59.958;17.726;2024-01-06T10:40:59;12.57;;;5.33;;
10430;SDS011;5262;59.958;17.726;2024-01-06T10:43:27;33.27;;;13.57;;
10430;SDS011;5262;59.958;17.726;2024-01-06T10:45:55;52.50;;;18.00;;
10430;SDS011;5262;59.958;17.726;2024-01-06T10:48:23;47.27;;;15.43;;
10430;SDS011;5262;59.958;17.726;2024-01-06T10:50:50;29.40;;;11.40;;
10430;SDS011;5262;59.958;17.726;2024-01-06T10:53:17;9.27;;;4.87;;
10430;SDS011;5262;59.958;17.726;2024-01-06T10:55:44;5.20;;;2.90;;
10430;SDS011;5262;59.958;17.726;2024-01-06T10:58:11;9.83;;;5.00;;
10430;SDS011;5262;59.958;17.726;2024-01-06T11:00:41;11.70;;;5.27;;
10430;SDS011;5262;59.958;17.726;2024-01-06T11:03:06;5.53;;;2.43;;
10430;SDS011;5262;59.958;17.726;2024-01-06T11:05:34;21.30;;;9.87;;
10430;SDS011;5262;59.958;17.726;2024-01-06T11:08:01;11.33;;;4.27;;
10430;SDS011;5262;59.958;17.726;2024-01-06T11:10:28;6.47;;;2.90;;
10430;SDS011;5262;59.958;17.726;2024-01-06T11:15:46;5.27;;;2.57;;
10430;SDS011;5262;59.958;17.726;2024-01-06T11:21:18;13.97;;;5.97;;
10430;SDS011;5262;59.958;17.726;2024-01-06T11:26:42;48.03;;;20.17;;
10430;SDS011;5262;59.958;17.726;2024-01-06T11:29:09;14.70;;;7.70;;
10430;SDS011;5262;59.958;17.726;2024-01-06T11:31:36;15.37;;;4.67;;
10430;SDS011;5262;59.958;17.726;2024-01-06T11:34:14;33.07;;;11.67;;
10430;SDS011;5262;59.958;17.726;2024-01-06T11:36:44;19.53;;;7.70;;
10430;SDS011;5262;59.958;17.726;2024-01-06T11:42:00;11.87;;;4.93;;
10430;SDS011;5262;59.958;17.726;2024-01-06T11:44:28;9.93;;;5.00;;
10430;SDS011;5262;59.958;17.726;2024-01-06T11:46:56;10.73;;;4.40;;
10430;SDS011;5262;59.958;17.726;2024-01-06T11:49:24;7.63;;;4.03;;
10430;SDS011;5262;59.958;17.726;2024-01-06T11:51:53;9.03;;;4.13;;
10430;SDS011;5262;59.958;17.726;2024-01-06T11:54:19;7.47;;;3.80;;
10430;SDS011;5262;59.958;17.726;2024-01-06T11:56:46;10.80;;;4.03;;
10430;SDS011;5262;59.958;17.726;2024-01-06T11:59:12;7.07;;;4.10;;
10430;SDS011;5262;59.958;17.726;2024-01-06T12:01:38;7.57;;;3.33;;
10430;SDS011;5262;59.958;17.726;2024-01-06T12:04:04;6.70;;;3.60;;
10430;SDS011;5262;59.958;17.726;2024-01-06T12:06:31;6.77;;;3.20;;
10430;SDS011;5262;59.958;17.726;2024-01-06T12:09:07;7.07;;;3.30;;
10430;SDS011;5262;59.958;17.726;2024-01-06T12:11:34;7.27;;;3.33;;
10430;SDS011;5262;59.958;17.726;2024-01-06T12:14:00;4.57;;;2.63;;
10430;SDS011;5262;59.958;17.726;2024-01-06T12:16:25;3.50;;;2.10;;
10430;SDS011;5262;59.958;17.726;2024-01-06T12:18:56;3.87;;;2.30;;
10430;SDS011;5262;59.958;17.726;2024-01-06T12:21:25;4.23;;;2.10;;
10430;SDS011;5262;59.958;17.726;2024-01-06T12:23:52;5.87;;;2.83;;
10430;SDS011;5262;59.958;17.726;2024-01-06T12:26:17;4.37;;;2.13;;
10430;SDS011;5262;59.958;17.726;2024-01-06T12:28:47;5.77;;;2.43;;
10430;SDS011;5262;59.958;17.726;2024-01-06T12:31:13;10.33;;;4.17;;
10430;SDS011;5262;59.958;17.726;2024-01-06T12:33:40;13.83;;;5.23;;
10430;SDS011;5262;59.958;17.726;2024-01-06T12:36:06;15.60;;;5.67;;
10430;SDS011;5262;59.958;17.726;2024-01-06T12:38:32;8.63;;;3.70;;
10430;SDS011;5262;59.958;17.726;2024-01-06T12:40:59;12.73;;;5.73;;
10430;SDS011;5262;59.958;17.726;2024-01-06T12:43:25;5.43;;;2.83;;
10430;SDS011;5262;59.958;17.726;2024-01-06T12:45:52;5.63;;;2.80;;
10430;SDS011;5262;59.958;17.726;2024-01-06T12:48:18;21.87;;;7.80;;
10430;SDS011;5262;59.958;17.726;2024-01-06T12:50:44;16.33;;;7.40;;
10430;SDS011;5262;59.958;17.726;2024-01-06T12:53:09;12.37;;;5.03;;
10430;SDS011;5262;59.958;17.726;2024-01-06T12:55:37;4.63;;;3.07;;
10430;SDS011;5262;59.958;17.726;2024-01-06T12:58:04;4.37;;;1.87;;
10430;SDS011;5262;59.958;17.726;2024-01-06T13:00:30;3.80;;;2.10;;
10430;SDS011;5262;59.958;17.726;2024-01-06T13:02:56;3.33;;;1.43;;
10430;SDS011;5262;59.958;17.726;2024-01-06T13:05:21;3.43;;;1.97;;
10430;SDS011;5262;59.958;17.726;2024-01-06T13:07:48;3.60;;;2.23;;
10430;SDS011;5262;59.958;17.726;2024-01-06T13:10:15;4.53;;;2.30;;
10430;SDS011;5262;59.958;17.726;2024-01-06T13:12:41;3.97;;;2.27;;
10430;SDS011;5262;59.958;17.726;2024-01-06T13:15:06;2.77;;;2.17;;
10430;SDS011;5262;59.958;17.726;2024-01-06T13:17:36;5.20;;;2.50;;
10430;SDS011;5262;59.958;17.726;2024-01-06T13:20:03;5.67;;;2.80;;
10430;SDS011;5262;59.958;17.726;2024-01-06T13:22:33;6.50;;;2.37;;
10430;SDS011;5262;59.958;17.726;2024-01-06T13:24:58;5.37;;;3.30;;
10430;SDS011;5262;59.958;17.726;2024-01-06T13:27:24;7.93;;;4.00;;
10430;SDS011;5262;59.958;17.726;2024-01-06T13:29:52;8.47;;;4.40;;
10430;SDS011;5262;59.958;17.726;2024-01-06T13:32:18;9.70;;;4.60;;
10430;SDS011;5262;59.958;17.726;2024-01-06T13:34:44;7.90;;;3.03;;
10430;SDS011;5262;59.958;17.726;2024-01-06T13:37:10;8.23;;;3.40;;
10430;SDS011;5262;59.958;17.726;2024-01-06T13:39:36;9.77;;;4.83;;
10430;SDS011;5262;59.958;17.726;2024-01-06T13:42:01;13.73;;;4.87;;
10430;SDS011;5262;59.958;17.726;2024-01-06T13:44:30;11.50;;;5.03;;
10430;SDS011;5262;59.958;17.726;2024-01-06T13:46:56;9.53;;;4.03;;
10430;SDS011;5262;59.958;17.726;2024-01-06T13:49:21;16.10;;;5.03;;
10430;SDS011;5262;59.958;17.726;2024-01-06T13:51:48;10.23;;;4.03;;
10430;SDS011;5262;59.958;17.726;2024-01-06T13:54:14;12.33;;;4.97;;
10430;SDS011;5262;59.958;17.726;2024-01-06T13:56:40;11.10;;;4.20;;
10430;SDS011;5262;59.958;17.726;2024-01-06T13:59:06;6.07;;;2.90;;
10430;SDS011;5262;59.958;17.726;2024-01-06T14:01:31;7.47;;;2.17;;
10430;SDS011;5262;59.958;17.726;2024-01-06T14:03:57;9.53;;;4.70;;
10430;SDS011;5262;59.958;17.726;2024-01-06T14:06:27;14.77;;;5.70;;
10430;SDS011;5262;59.958;17.726;2024-01-06T14:08:56;19.13;;;5.23;;
10430;SDS011;5262;59.958;17.726;2024-01-06T14:11:22;14.80;;;6.13;;
10430;SDS011;5262;59.958;17.726;2024-01-06T14:13:48;28.57;;;7.90;;
10430;SDS011;5262;59.958;17.726;2024-01-06T14:16:14;13.10;;;5.37;;
10430;SDS011;5262;59.958;17.726;2024-01-06T14:18:40;23.27;;;7.53;;
10430;SDS011;5262;59.958;17.726;2024-01-06T14:21:08;25.37;;;6.93;;
10430;SDS011;5262;59.958;17.726;2024-01-06T14:23:35;7.17;;;3.27;;
10430;SDS011;5262;59.958;17.726;2024-01-06T14:26:01;8.10;;;3.40;;
10430;SDS011;5262;59.958;17.726;2024-01-06T14:28:27;6.93;;;2.63;;
10430;SDS011;5262;59.958;17.726;2024-01-06T14:30:52;5.07;;;2.27;;
10430;SDS011;5262;59.958;17.726;2024-01-06T14:33:18;4.70;;;2.50;;
10430;SDS011;5262;59.958;17.726;2024-01-06T14:35:44;7.57;;;2.33;;
10430;SDS011;5262;59.958;17.726;2024-01-06T14:38:11;2.97;;;2.30;;
10430;SDS011;5262;59.958;17.726;2024-01-06T14:40:37;2.90;;;2.13;;
10430;SDS011;5262;59.958;17.726;2024-01-06T14:43:03;4.93;;;3.20;;
10430;SDS011;5262;59.958;17.726;2024-01-06T14:45:32;9.07;;;4.30;;
10430;SDS011;5262;59.958;17.726;2024-01-06T14:47:58;6.30;;;2.87;;
10430;SDS011;5262;59.958;17.726;2024-01-06T14:50:27;5.00;;;2.33;;
10430;SDS011;5262;59.958;17.726;2024-01-06T14:52:52;3.00;;;2.60;;